createdAt,value
2022-09-23T00:02:41.069Z,101587.69
2022-09-23T00:08:04.203Z,101587.80
2022-09-23T00:13:26.847Z,101586.45
2022-09-23T00:18:51.664Z,101584.71
2022-09-23T00:24:14.396Z,101586.84
2022-09-23T00:29:37.204Z,101578.98
2022-09-23T00:34:59.337Z,101578.73
2022-09-23T00:40:22.225Z,101569.02
2022-09-23T00:45:44.621Z,101570.95
2022-09-23T00:51:09.046Z,101565.61
2022-09-23T00:56:33.969Z,101567.55
2022-09-23T01:01:58.205Z,101564.31
2022-09-23T01:07:22.261Z,101568.14
2022-09-23T01:13:07.406Z,101566.45
2022-09-23T01:18:43.967Z,101556.94
2022-09-23T01:24:37.647Z,101571.09
2022-09-23T01:30:17.039Z,101562.94
2022-09-23T01:36:11.583Z,101566.05
2022-09-23T01:41:56.354Z,101561.02
2022-09-23T01:47:44.572Z,101562.81
2022-09-23T01:53:11.090Z,101560.17
2022-09-23T01:58:41.652Z,101567.38
2022-09-23T02:04:18.992Z,101556.34
2022-09-23T02:09:45.998Z,101556.81
2022-09-23T02:15:13.553Z,101557.09
2022-09-23T02:20:40.460Z,101560.14
2022-09-23T02:26:31.452Z,101552.02
2022-09-23T02:32:03.954Z,101546.02
2022-09-23T02:37:53.443Z,101555.04
2022-09-23T02:43:40.227Z,101557.74
2022-09-23T02:49:17.083Z,101538.66
2022-09-23T02:54:41.972Z,101543.25
2022-09-23T03:00:04.605Z,101540.16
2022-09-23T03:05:36.312Z,101527.97
2022-09-23T03:11:14.603Z,101526.25
2022-09-23T03:17:12.799Z,101522.05
2022-09-23T03:22:48.890Z,101533.34
2022-09-23T03:28:15.163Z,101529.91
2022-09-23T03:33:39.347Z,101515.18
2022-09-23T03:39:05.959Z,101525.02
2022-09-23T03:44:29.644Z,101510.09
2022-09-23T03:49:57.227Z,101505.61
2022-09-23T03:55:20.024Z,101513.95
2022-09-23T04:00:42.643Z,101503.56
2022-09-23T04:06:04.933Z,101512.02
2022-09-23T04:11:27.344Z,101514.05
2022-09-23T04:16:49.587Z,101508.41
2022-09-23T04:22:12.548Z,101505.34
2022-09-23T04:27:37.801Z,101515.16
2022-09-23T04:32:59.345Z,101515.16
2022-09-23T04:38:23.874Z,101514.00
2022-09-23T04:43:46.382Z,101506.98
2022-09-23T04:49:09.589Z,101508.19
2022-09-23T04:54:32.493Z,101505.69
2022-09-23T04:59:56.307Z,101513.73
2022-09-23T05:05:23.543Z,101516.67
2022-09-23T05:10:46.934Z,101519.41
2022-09-23T05:16:14.151Z,101519.41
2022-09-23T05:21:39.488Z,101516.14
2022-09-23T05:27:02.321Z,101519.34
2022-09-23T05:32:24.568Z,101511.30
2022-09-23T05:37:46.734Z,101516.70
2022-09-23T05:43:09.363Z,101517.26
2022-09-23T05:48:32.106Z,101517.54
2022-09-23T05:53:54.893Z,101516.24
2022-09-23T05:59:18.680Z,101521.91
2022-09-23T06:04:41.387Z,101519.36
2022-09-23T06:10:05.310Z,101523.20
2022-09-23T06:15:27.731Z,101525.26
2022-09-23T06:20:51.128Z,101523.48
2022-09-23T06:26:17.345Z,101525.92
2022-09-23T06:31:41.343Z,101527.09
2022-09-23T06:37:14.995Z,101522.96
2022-09-23T06:42:28.341Z,101533.42
2022-09-23T06:47:52.130Z,101517.25
2022-09-23T06:53:14.929Z,101515.37
2022-09-23T06:58:38.987Z,101513.50
2022-09-23T07:04:02.085Z,101513.93
2022-09-23T07:09:24.773Z,101514.70
2022-09-23T07:14:47.478Z,101503.55
2022-09-23T07:20:11.800Z,101500.95
2022-09-23T07:25:34.599Z,101500.20
2022-09-23T07:31:00.728Z,101503.10
2022-09-23T07:36:28.303Z,101495.97
2022-09-23T07:41:52.723Z,101496.11
2022-09-23T07:47:15.983Z,101496.77
2022-09-23T07:52:38.279Z,101489.87
2022-09-23T07:58:00.618Z,101498.42
2022-09-23T08:03:23.343Z,101501.16
2022-09-23T08:08:50.006Z,101503.67
2022-09-23T08:14:11.474Z,101495.12
2022-09-23T08:19:34.661Z,101493.22
2022-09-23T08:24:58.666Z,101486.66
2022-09-23T08:30:23.325Z,101477.32
2022-09-23T08:35:46.119Z,101472.19
2022-09-23T08:41:24.511Z,101473.11
2022-09-23T08:46:53.145Z,101480.91
2022-09-23T08:52:24.567Z,101463.69
2022-09-23T08:58:24.623Z,101470.38
2022-09-23T09:03:40.375Z,101469.72
2022-09-23T09:09:07.272Z,101467.90
2022-09-23T09:14:34.040Z,101470.56
2022-09-23T09:20:12.816Z,101464.73
2022-09-23T09:26:00.557Z,101463.05
2022-09-23T09:31:50.771Z,101459.53
2022-09-23T09:37:24.132Z,101455.30
2022-09-23T09:42:51.349Z,101455.30
2022-09-23T09:48:40.253Z,101444.92
2022-09-23T09:54:04.925Z,101445.60
2022-09-23T09:59:34.846Z,101430.75
2022-09-23T10:05:08.279Z,101430.52
2022-09-23T10:10:33.977Z,101417.94
2022-09-23T10:16:01.230Z,101419.19
2022-09-23T10:21:31.592Z,101413.76
2022-09-23T10:27:12.012Z,101407.67
2022-09-23T10:32:52.219Z,101400.73
2022-09-23T10:38:14.083Z,101399.17
2022-09-23T10:43:53.141Z,101399.69
2022-09-23T10:50:04.913Z,101396.51
2022-09-23T10:55:51.158Z,101388.42
2022-09-23T11:01:49.231Z,101385.33
2022-09-23T11:07:38.122Z,101370.17
2022-09-23T11:13:20.192Z,101385.91
2022-09-23T11:19:14.681Z,101381.59
2022-09-23T11:24:55.425Z,101362.19
2022-09-23T11:30:24.838Z,101365.73
2022-09-23T11:36:00.744Z,101358.24
2022-09-23T11:41:35.873Z,101348.86
2022-09-23T11:47:02.700Z,101338.07
2022-09-23T11:52:56.898Z,101338.07
2022-09-23T11:58:26.304Z,101328.27
2022-09-23T12:04:15.435Z,101332.30
2022-09-23T12:10:01.448Z,101315.88
2022-09-23T12:15:46.602Z,101311.95
2022-09-23T12:21:51.324Z,101305.79
2022-09-23T12:27:06.464Z,101303.00
2022-09-23T12:32:31.271Z,101296.27
2022-09-23T12:37:56.350Z,101295.88
2022-09-23T12:43:24.758Z,101291.44
2022-09-23T12:49:03.970Z,101287.16
2022-09-23T12:54:35.313Z,101288.09
2022-09-23T13:00:15.428Z,101285.20
2022-09-23T13:06:07.279Z,101276.14
2022-09-23T13:11:45.717Z,101274.77
2022-09-23T13:17:09.797Z,101268.48
2022-09-23T13:22:48.445Z,101265.70
2022-09-23T13:28:16.193Z,101255.05
2022-09-23T13:33:43.894Z,101245.36
2022-09-23T13:39:12.771Z,101240.39
2022-09-23T13:44:36.320Z,101238.41
2022-09-23T13:49:59.054Z,101236.77
2022-09-23T13:55:41.865Z,101232.17
2022-09-23T14:01:04.831Z,101223.05
2022-09-23T14:06:29.017Z,101214.64
2022-09-23T14:11:53.469Z,101211.48
2022-09-23T14:17:19.569Z,101206.53
2022-09-23T14:22:45.980Z,101207.11
2022-09-23T14:28:08.135Z,101204.47
2022-09-23T14:33:34.419Z,101202.08
2022-09-23T14:38:56.562Z,101194.92
2022-09-23T14:44:32.023Z,101192.99
2022-09-23T14:50:14.157Z,101184.81
2022-09-23T14:55:38.418Z,101176.80
2022-09-23T15:01:07.728Z,101174.08
2022-09-23T15:06:24.765Z,101160.29
2022-09-23T15:11:48.744Z,101165.89
2022-09-23T15:17:26.148Z,101158.11
2022-09-23T15:22:50.790Z,101156.36
2022-09-23T15:28:25.084Z,101156.22
2022-09-23T15:33:48.417Z,101154.08
2022-09-23T15:39:32.046Z,101152.69
2022-09-23T15:44:47.922Z,101141.85
2022-09-23T15:50:12.431Z,101144.78
2022-09-23T15:55:36.378Z,101138.58
2022-09-23T16:00:59.979Z,101137.08
2022-09-23T16:06:26.228Z,101141.36
2022-09-23T16:11:53.162Z,101136.90
2022-09-23T16:17:16.907Z,101139.16
2022-09-23T16:22:39.772Z,101139.33
2022-09-23T16:28:02.605Z,101143.30
2022-09-23T16:33:26.588Z,101141.76
2022-09-23T16:38:49.160Z,101130.53
2022-09-23T16:44:14.894Z,101138.45
2022-09-23T16:49:37.652Z,101131.89
2022-09-23T16:55:00.782Z,101138.20
2022-09-23T17:00:44.978Z,101143.69
2022-09-23T17:06:08.874Z,101139.42
2022-09-23T17:11:34.153Z,101132.64
2022-09-23T17:16:55.473Z,101133.59
2022-09-23T17:22:18.104Z,101137.11
2022-09-23T17:27:40.956Z,101132.58
2022-09-23T17:33:03.210Z,101132.28
2022-09-23T17:38:28.845Z,101126.75
2022-09-23T17:43:49.921Z,101129.70
2022-09-23T17:49:12.490Z,101129.13
2022-09-23T17:54:37.068Z,101133.86
2022-09-23T17:59:59.355Z,101138.48
2022-09-23T18:05:22.326Z,101137.88
2022-09-23T18:10:44.717Z,101146.36
2022-09-23T18:16:08.728Z,101139.58
2022-09-23T18:21:33.266Z,101144.23
2022-09-23T18:27:06.855Z,101147.70
2022-09-23T18:32:28.980Z,101148.12
2022-09-23T18:37:51.208Z,101147.08
2022-09-23T18:43:18.307Z,101146.33
2022-09-23T18:49:00.785Z,101143.99
2022-09-23T18:54:25.523Z,101137.16
2022-09-23T18:59:47.721Z,101143.88
2022-09-23T19:05:09.949Z,101144.33
2022-09-23T19:10:32.292Z,101141.72
2022-09-23T19:15:55.066Z,101143.61
2022-09-23T19:21:20.598Z,101140.59
2022-09-23T19:26:46.550Z,101140.95
2022-09-23T19:32:08.792Z,101136.28
2022-09-23T19:37:31.023Z,101138.77
2022-09-23T19:42:56.092Z,101128.77
2022-09-23T19:48:19.076Z,101130.34
2022-09-23T19:53:42.040Z,101128.67
2022-09-23T19:59:07.664Z,101138.36
2022-09-23T20:04:31.617Z,101131.75
2022-09-23T20:09:54.556Z,101129.61
2022-09-23T20:15:17.513Z,101119.84
2022-09-23T20:20:40.251Z,101116.75
2022-09-23T20:26:27.183Z,101117.24
2022-09-23T20:31:51.061Z,101119.97
2022-09-23T20:37:17.589Z,101114.68
2022-09-23T20:42:40.175Z,101105.72
2022-09-23T20:48:03.868Z,101099.27
2022-09-23T20:53:27.115Z,101099.35
2022-09-23T20:58:52.325Z,101097.45
2022-09-23T21:04:15.017Z,101096.97
2022-09-23T21:09:41.057Z,101098.69
2022-09-23T21:15:03.199Z,101099.73
2022-09-23T21:20:26.152Z,101098.78
2022-09-23T21:25:48.448Z,101101.50
2022-09-23T21:31:13.463Z,101103.77
2022-09-23T21:36:43.057Z,101102.23
2022-09-23T21:42:06.154Z,101099.47
2022-09-23T21:47:29.374Z,101110.66
2022-09-23T21:52:52.279Z,101105.72
2022-09-23T21:58:16.017Z,101112.70
2022-09-23T22:03:38.384Z,101108.39
2022-09-23T22:09:04.203Z,101109.16
2022-09-23T22:14:30.784Z,101112.87
2022-09-23T22:19:54.574Z,101104.00
2022-09-23T22:25:17.009Z,101099.87
2022-09-23T22:30:57.453Z,101093.12
2022-09-23T22:36:20.809Z,101091.23
2022-09-23T22:41:43.416Z,101090.28
2022-09-23T22:47:06.315Z,101091.14
2022-09-23T22:52:28.716Z,101080.81
2022-09-23T22:57:51.984Z,101081.98
2022-09-23T23:03:16.667Z,101076.47
2022-09-23T23:08:41.126Z,101076.64
2022-09-23T23:14:03.297Z,101069.41
2022-09-23T23:19:28.802Z,101070.90
2022-09-23T23:24:52.899Z,101073.16
2022-09-23T23:30:15.877Z,101063.84
2022-09-23T23:35:38.010Z,101072.22
2022-09-23T23:41:00.145Z,101065.92
2022-09-23T23:46:24.699Z,101062.39
2022-09-23T23:51:48.242Z,101059.40
2022-09-23T23:57:10.996Z,101066.05
